Time;durP1;ratioP1;P1;durP2;ratioP2;P2;SDS_P1;SDS_P2;PMS_P1;PMS_P2;Temp;Humidity;BMP_temperature;BMP_pressure;BME280_temperature;BME280_humidity;BME280_pressure;Samples;Min_cycle;Max_cycle;Signal;HPM_P1;HPM_P2
2021/06/09 00:01:00;;;;;;;4.27;3.70;;;19.60;92.90;;;;;;5070385;22;20447;-84
2021/06/09 00:03:03;;;;;;;3.53;3.23;;;19.50;90.90;;;;;;5070169;22;20731;-84
2021/06/09 00:05:07;;;;;;;4.93;4.47;;;19.60;90.30;;;;;;5070035;22;20432;-86
2021/06/09 00:07:11;;;;;;;5.20;4.70;;;19.60;91.60;;;;;;5070189;23;20440;-84
2021/06/09 00:09:14;;;;;;;4.93;4.43;;;19.50;92.70;;;;;;5070738;22;20894;-84
2021/06/09 00:11:16;;;;;;;5.83;3.87;;;19.50;92.60;;;;;;5070477;22;20451;-84
2021/06/09 00:13:18;;;;;;;3.73;3.43;;;19.50;93.30;;;;;;5070977;22;20435;-84
2021/06/09 00:15:21;;;;;;;3.60;3.30;;;19.40;91.70;;;;;;5070524;22;20432;-84
2021/06/09 00:17:23;;;;;;;3.30;3.00;;;19.30;91.30;;;;;;5070384;22;20421;-86
2021/06/09 00:19:27;;;;;;;3.37;3.10;;;19.50;92.00;;;;;;5069922;22;20428;-84
2021/06/09 00:21:30;;;;;;;4.73;3.30;;;19.50;91.70;;;;;;5070231;22;20438;-86
2021/06/09 00:23:33;;;;;;;3.40;3.10;;;19.40;92.40;;;;;;5069951;22;20432;-84
2021/06/09 00:25:36;;;;;;;4.53;3.33;;;19.30;92.30;;;;;;5070996;23;20415;-84
2021/06/09 00:27:39;;;;;;;3.23;2.93;;;19.20;91.60;;;;;;5070563;22;20824;-84
2021/06/09 00:29:42;;;;;;;3.10;2.90;;;19.00;92.10;;;;;;5071038;22;20451;-84
2021/06/09 00:31:44;;;;;;;3.70;3.40;;;18.90;92.20;;;;;;5070384;22;20467;-87
2021/06/09 00:33:47;;;;;;;3.97;3.10;;;18.80;92.80;;;;;;5070849;22;20424;-84
2021/06/09 00:35:50;;;;;;;3.47;3.17;;;18.80;93.20;;;;;;5070249;22;20511;-87
2021/06/09 00:37:52;;;;;;;3.63;3.33;;;18.70;93.40;;;;;;5070856;22;20430;-84
2021/06/09 00:39:56;;;;;;;3.40;3.10;;;18.70;93.20;;;;;;5071104;22;20447;-84
2021/06/09 00:41:59;;;;;;;2.93;2.70;;;18.60;93.10;;;;;;5071714;22;20424;-84
2021/06/09 00:44:03;;;;;;;3.17;2.97;;;18.60;93.40;;;;;;5072011;22;20737;-84
2021/06/09 00:46:07;;;;;;;3.40;2.70;;;18.60;92.70;;;;;;5072105;22;20428;-85
2021/06/09 00:48:10;;;;;;;3.83;3.53;;;18.60;92.30;;;;;;5072095;22;20482;-84
2021/06/09 00:50:12;;;;;;;3.37;3.07;;;18.70;92.60;;;;;;5071655;22;20976;-84
2021/06/09 00:52:16;;;;;;;3.00;2.70;;;18.70;92.20;;;;;;5071820;22;20928;-85
2021/06/09 00:54:18;;;;;;;3.27;3.00;;;18.60;92.10;;;;;;5072281;22;20428;-83
2021/06/09 00:56:24;;;;;;;4.10;3.07;;;18.60;92.20;;;;;;5071944;22;20507;-86
2021/06/09 00:58:27;;;;;;;3.20;2.90;;;18.60;92.00;;;;;;5071898;23;20427;-83
2021/06/09 01:00:30;;;;;;;3.50;3.20;;;18.70;92.20;;;;;;5071810;22;20951;-84
2021/06/09 01:02:32;;;;;;;3.67;3.37;;;18.70;92.40;;;;;;5071503;22;20477;-85
2021/06/09 01:04:35;;;;;;;3.93;3.53;;;18.70;92.40;;;;;;5071781;22;20518;-84
2021/06/09 01:06:37;;;;;;;5.03;3.47;;;18.80;92.20;;;;;;5072200;22;20440;-84
2021/06/09 01:08:42;;;;;;;8.00;3.23;;;18.70;92.20;;;;;;5071432;22;20788;-84
2021/06/09 01:10:48;;;;;;;3.60;3.23;;;18.70;92.50;;;;;;5071566;23;20833;-83
2021/06/09 01:12:52;;;;;;;3.90;3.13;;;18.70;92.00;;;;;;5072591;23;20800;-84
2021/06/09 01:14:55;;;;;;;3.77;3.37;;;18.70;92.40;;;;;;5072051;22;20439;-84
2021/06/09 01:16:57;;;;;;;3.60;3.30;;;18.70;92.40;;;;;;5071715;22;20427;-85
2021/06/09 01:19:00;;;;;;;3.60;3.30;;;18.60;92.70;;;;;;5072147;22;20939;-84
2021/06/09 01:21:03;;;;;;;4.70;2.97;;;18.60;93.00;;;;;;5072144;23;20454;-83
2021/06/09 01:23:07;;;;;;;3.60;3.10;;;18.60;92.50;;;;;;5071955;22;21019;-83
2021/06/09 01:25:10;;;;;;;3.40;3.10;;;18.60;92.30;;;;;;5071619;22;20860;-84
2021/06/09 01:27:13;;;;;;;3.50;3.00;;;18.50;92.50;;;;;;5072006;22;21092;-84
2021/06/09 01:29:17;;;;;;;2.97;2.77;;;18.60;92.40;;;;;;5071631;22;21445;-84
2021/06/09 01:31:20;;;;;;;5.07;3.37;;;18.50;92.30;;;;;;5071592;22;20432;-84
2021/06/09 01:33:23;;;;;;;3.70;3.00;;;18.50;92.40;;;;;;5071604;22;21007;-84
2021/06/09 01:35:27;;;;;;;3.60;3.07;;;18.40;92.60;;;;;;5072096;22;20444;-84
2021/06/09 01:37:31;;;;;;;3.40;3.10;;;18.30;92.90;;;;;;5071600;22;20429;-83
2021/06/09 01:39:35;;;;;;;4.77;2.97;;;18.20;93.10;;;;;;5071840;22;20448;-84
2021/06/09 01:41:42;;;;;;;3.37;3.07;;;18.20;93.00;;;;;;5071585;22;20427;-85
2021/06/09 01:43:44;;;;;;;3.70;3.40;;;18.20;93.60;;;;;;5071579;23;20439;-83
2021/06/09 01:45:47;;;;;;;3.20;2.90;;;18.20;93.50;;;;;;5071405;22;20764;-84
2021/06/09 01:47:50;;;;;;;3.37;3.07;;;18.20;93.80;;;;;;5070931;22;20448;-84
2021/06/09 01:49:53;;;;;;;3.23;2.93;;;18.20;93.60;;;;;;5070515;22;20499;-83
2021/06/09 01:51:56;;;;;;;3.83;3.40;;;18.20;93.80;;;;;;5071115;22;20435;-87
2021/06/09 01:53:58;;;;;;;4.07;3.67;;;18.10;93.60;;;;;;5071637;22;20424;-84
2021/06/09 01:56:03;;;;;;;3.13;2.90;;;18.10;93.80;;;;;;5071467;22;20431;-83
2021/06/09 01:58:08;;;;;;;3.10;2.80;;;18.10;93.60;;;;;;5072235;23;20460;-84
2021/06/09 02:00:14;;;;;;;3.30;3.00;;;18.10;93.70;;;;;;5071222;22;20965;-84
2021/06/09 02:02:17;;;;;;;3.40;3.10;;;18.00;93.70;;;;;;5071414;23;20519;-84
2021/06/09 02:04:21;;;;;;;3.00;2.80;;;18.10;93.50;;;;;;5071557;22;20463;-84
2021/06/09 02:06:23;;;;;;;3.33;2.97;;;18.10;93.70;;;;;;5071697;22;20442;-87
2021/06/09 02:08:26;;;;;;;3.40;3.10;;;18.00;93.70;;;;;;5069202;22;20452;-85
2021/06/09 02:10:29;;;;;;;2.97;2.77;;;18.00;93.40;;;;;;5069873;22;20452;-84
2021/06/09 02:12:33;;;;;;;3.57;3.03;;;18.00;93.70;;;;;;5070663;22;20432;-84
2021/06/09 02:14:36;;;;;;;3.53;3.20;;;17.90;93.50;;;;;;5070769;22;20432;-83
2021/06/09 02:16:40;;;;;;;3.50;3.20;;;17.90;93.10;;;;;;5071745;22;20486;-84
2021/06/09 02:18:43;;;;;;;3.43;3.10;;;17.90;93.20;;;;;;5071634;22;20424;-84
2021/06/09 02:20:48;;;;;;;5.87;3.63;;;17.90;93.50;;;;;;5072003;22;20451;-83
2021/06/09 02:22:51;;;;;;;62.10;10.90;;;17.90;93.50;;;;;;5072304;23;20463;-84
2021/06/09 02:24:54;;;;;;;27.93;6.60;;;17.80;94.10;;;;;;5072100;22;20439;-83
2021/06/09 02:26:58;;;;;;;8.70;3.73;;;17.80;94.10;;;;;;5071683;22;20432;-88
2021/06/09 02:29:03;;;;;;;7.43;4.30;;;17.70;94.20;;;;;;5071933;22;20773;-85
2021/06/09 02:31:05;;;;;;;4.57;3.50;;;17.70;94.30;;;;;;5071428;22;20471;-85
2021/06/09 02:33:08;;;;;;;13.73;4.40;;;17.70;93.70;;;;;;5071955;22;20428;-84
2021/06/09 02:35:14;;;;;;;8.20;3.50;;;17.70;93.60;;;;;;5071683;22;20442;-85
2021/06/09 02:37:18;;;;;;;3.40;3.10;;;17.70;93.30;;;;;;5071439;23;20955;-85
2021/06/09 02:39:24;;;;;;;4.63;3.20;;;17.70;93.20;;;;;;5071958;22;20427;-85
2021/06/09 02:41:37;;;;;;;4.70;3.20;;;17.70;93.30;;;;;;5071627;23;20909;-85
2021/06/09 02:43:40;;;;;;;4.47;3.60;;;17.70;93.20;;;;;;5071674;22;20428;-83
2021/06/09 02:52:45;;;;;;;3.30;3.00;;;17.70;92.70;;;;;;5060334;23;20470;-82
2021/06/09 02:54:53;;;;;;;3.37;3.07;;;17.70;93.10;;;;;;5065023;22;20772;-81
2021/06/09 02:57:02;;;;;;;8.17;3.63;;;17.70;93.10;;;;;;5070588;23;20432;-82
2021/06/09 02:59:16;;;;;;;3.30;3.00;;;17.70;93.40;;;;;;5070345;23;20963;-81
2021/06/09 03:01:28;;;;;;;3.30;3.00;;;17.80;93.60;;;;;;5071479;22;20424;-83
2021/06/09 03:03:40;;;;;;;3.30;3.00;;;17.80;93.20;;;;;;5070392;22;20511;-82
2021/06/09 03:05:47;;;;;;;3.77;2.83;;;17.80;93.20;;;;;;5071101;23;20430;-84
2021/06/09 03:07:59;;;;;;;3.40;3.10;;;17.70;93.30;;;;;;5071905;23;20412;-83
2021/06/09 03:10:09;;;;;;;3.87;3.50;;;17.70;93.30;;;;;;5071257;23;20451;-83
2021/06/09 03:12:21;;;;;;;3.47;2.73;;;17.60;93.60;;;;;;5071034;23;20424;-82
2021/06/09 03:17:02;;;;;;;4.07;3.13;;;17.50;94.60;;;;;;5043105;23;20467;-82
2021/06/09 03:19:06;;;;;;;3.63;3.33;;;17.40;94.70;;;;;;5062546;23;20447;-85
2021/06/09 03:21:14;;;;;;;4.07;3.60;;;17.40;94.70;;;;;;5071454;22;20420;-83
2021/06/09 03:23:29;;;;;;;3.50;3.20;;;17.40;94.70;;;;;;5069907;23;20412;-84
2021/06/09 03:25:38;;;;;;;5.13;3.40;;;17.40;94.80;;;;;;5070759;23;20420;-83
2021/06/09 03:27:48;;;;;;;3.80;3.50;;;17.40;95.20;;;;;;5071172;23;20431;-83
2021/06/09 03:29:55;;;;;;;3.83;3.33;;;17.50;95.00;;;;;;5070850;23;20594;-83
2021/06/09 03:32:03;;;;;;;3.83;3.53;;;17.60;94.70;;;;;;5071279;23;20404;-83
2021/06/09 03:34:11;;;;;;;3.93;3.63;;;17.50;94.80;;;;;;5071505;23;20433;-83
2021/06/09 03:36:19;;;;;;;4.07;3.73;;;17.50;94.70;;;;;;5071721;23;20809;-83
2021/06/09 03:38:31;;;;;;;3.70;3.30;;;17.40;94.60;;;;;;5071591;23;21220;-84
2021/06/09 03:40:38;;;;;;;3.70;3.40;;;17.50;94.70;;;;;;5071149;23;20519;-83
2021/06/09 03:42:45;;;;;;;3.33;3.03;;;17.50;94.50;;;;;;5071168;23;20431;-83
2021/06/09 03:44:51;;;;;;;4.70;4.30;;;17.50;94.70;;;;;;5071030;23;20934;-83
2021/06/09 03:46:56;;;;;;;3.70;3.40;;;17.50;94.70;;;;;;5070854;23;20444;-83
2021/06/09 03:49:01;;;;;;;3.80;3.17;;;17.70;94.50;;;;;;5070826;22;20479;-83
2021/06/09 03:51:05;;;;;;;3.73;3.37;;;17.60;94.60;;;;;;5071546;23;20503;-84
2021/06/09 03:53:12;;;;;;;3.30;2.90;;;17.50;94.70;;;;;;5071237;23;20436;-82
2021/06/09 03:55:17;;;;;;;3.90;3.60;;;17.50;94.60;;;;;;5071669;22;20797;-83
2021/06/09 03:57:22;;;;;;;3.53;3.23;;;17.40;94.90;;;;;;5063717;23;20490;-83
2021/06/09 03:59:26;;;;;;;3.70;3.40;;;17.40;95.20;;;;;;5062523;23;20444;-83
2021/06/09 04:01:31;;;;;;;4.00;3.60;;;17.50;95.00;;;;;;5070969;22;20428;-83
2021/06/09 04:03:34;;;;;;;3.73;3.37;;;17.30;95.10;;;;;;5070703;23;20420;-84
2021/06/09 04:05:40;;;;;;;3.73;3.43;;;17.30;95.50;;;;;;5071101;22;20438;-83
2021/06/09 04:07:45;;;;;;;5.00;3.20;;;17.40;95.30;;;;;;5071473;23;20420;-84
2021/06/09 04:09:48;;;;;;;4.13;3.50;;;17.20;96.40;;;;;;5070920;22;20452;-84
2021/06/09 04:11:54;;;;;;;3.70;3.40;;;17.20;96.80;;;;;;5071803;22;20456;-84
2021/06/09 04:13:58;;;;;;;4.50;3.47;;;17.10;97.40;;;;;;5071278;22;20435;-83
2021/06/09 04:16:02;;;;;;;5.80;4.10;;;17.10;97.70;;;;;;5070759;22;20436;-83
2021/06/09 04:18:06;;;;;;;4.77;3.60;;;17.10;97.90;;;;;;5071656;22;20482;-83
2021/06/09 04:20:10;;;;;;;3.63;3.33;;;17.10;98.00;;;;;;5071828;22;20941;-83
2021/06/09 04:22:15;;;;;;;3.73;3.43;;;17.10;98.10;;;;;;5072049;22;20502;-82
2021/06/09 04:24:17;;;;;;;4.33;3.87;;;17.20;98.20;;;;;;5072141;22;20428;-83
2021/06/09 04:26:21;;;;;;;4.30;4.00;;;17.10;98.30;;;;;;5072035;22;20435;-83
2021/06/09 04:28:25;;;;;;;3.80;3.50;;;17.10;98.30;;;;;;5071242;22;20434;-83
2021/06/09 04:30:27;;;;;;;5.97;4.03;;;17.10;98.30;;;;;;5063999;23;20436;-83
2021/06/09 04:32:49;;;;;;;3.97;3.60;;;17.20;98.30;;;;;;5071191;22;20428;-83
2021/06/09 04:34:52;;;;;;;7.53;3.90;;;17.30;98.30;;;;;;5072252;23;20412;-84
2021/06/09 04:36:55;;;;;;;5.07;4.20;;;17.30;98.30;;;;;;5071987;22;20431;-84
2021/06/09 04:38:59;;;;;;;4.10;3.70;;;17.40;98.30;;;;;;5071571;22;20513;-83
2021/06/09 04:41:01;;;;;;;4.23;3.80;;;17.50;98.30;;;;;;5063909;22;20442;-83
2021/06/09 04:43:04;;;;;;;4.87;3.97;;;17.50;98.30;;;;;;5071505;22;20431;-83
2021/06/09 04:45:09;;;;;;;5.60;4.03;;;17.50;98.30;;;;;;5064318;22;20768;-84
2021/06/09 04:47:14;;;;;;;4.37;3.60;;;17.60;98.30;;;;;;5063554;23;20421;-83
2021/06/09 04:49:17;;;;;;;4.10;3.70;;;17.70;97.70;;;;;;5071287;22;20455;-83
2021/06/09 04:51:19;;;;;;;4.33;3.93;;;17.80;97.50;;;;;;5072197;22;20439;-83
2021/06/09 04:53:22;;;;;;;3.97;3.57;;;17.90;97.30;;;;;;5064146;22;20455;-83
2021/06/09 04:55:27;;;;;;;4.40;4.00;;;17.90;97.20;;;;;;5064200;22;20523;-83
2021/06/09 04:57:30;;;;;;;4.13;3.83;;;17.80;97.60;;;;;;5072438;23;20422;-83
2021/06/09 04:59:33;;;;;;;4.47;4.07;;;17.90;97.30;;;;;;5072150;22;20440;-83
2021/06/09 05:01:37;;;;;;;4.40;3.87;;;18.00;97.20;;;;;;5072224;22;20416;-84
2021/06/09 05:03:40;;;;;;;4.73;4.33;;;18.10;96.80;;;;;;5072167;22;20423;-83
2021/06/09 05:05:42;;;;;;;4.40;4.00;;;18.20;96.50;;;;;;5064165;23;20438;-83
2021/06/09 05:07:45;;;;;;;4.30;3.90;;;18.10;96.70;;;;;;5072506;22;20423;-83
2021/06/09 05:09:48;;;;;;;4.37;3.97;;;18.20;97.20;;;;;;5064064;22;20848;-82
2021/06/09 05:12:03;;;;;;;8.60;4.30;;;18.20;97.20;;;;;;5072036;22;20428;-83
2021/06/09 05:14:14;;;;;;;4.40;4.00;;;18.30;97.20;;;;;;5072001;22;20478;-83
2021/06/09 05:16:21;;;;;;;3.90;3.50;;;18.30;97.30;;;;;;5064453;23;20420;-83
2021/06/09 05:18:27;;;;;;;4.27;3.80;;;18.40;97.10;;;;;;5063973;23;20455;-83
2021/06/09 05:20:34;;;;;;;5.23;3.70;;;18.40;97.00;;;;;;5072428;23;20404;-84
2021/06/09 05:22:41;;;;;;;4.10;3.70;;;18.50;97.00;;;;;;5072510;22;20450;-83
2021/06/09 05:24:46;;;;;;;4.43;3.70;;;18.60;96.70;;;;;;5072175;23;20736;-84
2021/06/09 05:26:50;;;;;;;4.07;3.67;;;18.70;95.90;;;;;;5071460;23;20749;-83
2021/06/09 05:28:56;;;;;;;5.73;3.80;;;18.70;96.00;;;;;;5063655;23;20460;-83
2021/06/09 05:31:01;;;;;;;4.00;3.70;;;18.70;96.10;;;;;;5071750;23;20484;-83
2021/06/09 05:33:05;;;;;;;4.23;3.87;;;18.70;96.00;;;;;;5065810;22;20507;-82
2021/06/09 05:35:09;;;;;;;3.60;3.30;;;18.70;95.80;;;;;;5075520;22;20428;-80
2021/06/09 05:37:12;;;;;;;7.00;4.20;;;18.70;95.80;;;;;;5075850;23;20436;-81
2021/06/09 05:39:15;;;;;;;4.00;3.60;;;18.70;96.20;;;;;;5066511;23;20452;-82
2021/06/09 05:41:18;;;;;;;3.57;3.27;;;18.70;96.10;;;;;;5067027;22;20432;-82
2021/06/09 05:43:24;;;;;;;4.33;3.93;;;18.80;95.70;;;;;;5074612;23;20427;-80
2021/06/09 05:45:29;;;;;;;4.10;3.40;;;18.90;96.00;;;;;;5066880;23;20492;-81
2021/06/09 05:47:31;;;;;;;4.43;4.00;;;18.90;96.20;;;;;;5066308;23;20503;-81
2021/06/09 05:49:34;;;;;;;4.33;3.50;;;19.10;96.20;;;;;;5066235;23;20452;-81
2021/06/09 05:51:36;;;;;;;3.70;3.40;;;19.10;95.10;;;;;;5074582;22;20482;-81
2021/06/09 05:53:39;;;;;;;4.07;3.77;;;19.10;95.40;;;;;;5066026;23;20735;-81
2021/06/09 05:55:41;;;;;;;4.83;3.93;;;19.20;95.60;;;;;;5066578;22;20838;-81
2021/06/09 05:57:45;;;;;;;3.87;3.50;;;19.20;95.80;;;;;;5065565;23;20507;-81
2021/06/09 05:59:50;;;;;;;4.20;3.80;;;19.30;95.60;;;;;;5064376;23;20634;-82
2021/06/09 06:01:54;;;;;;;4.00;3.70;;;19.30;95.40;;;;;;5071998;22;20432;-83
2021/06/09 06:03:57;;;;;;;4.00;3.60;;;19.50;95.00;;;;;;5072629;22;20430;-82
2021/06/09 06:06:01;;;;;;;5.13;3.87;;;19.60;93.70;;;;;;5072695;22;20508;-81
2021/06/09 06:08:04;;;;;;;5.73;3.57;;;19.50;94.20;;;;;;5073279;23;20423;-81
2021/06/09 06:10:08;;;;;;;4.13;3.73;;;19.60;94.20;;;;;;5072472;22;20455;-81
2021/06/09 06:12:11;;;;;;;4.30;3.60;;;19.70;92.90;;;;;;5065448;23;20439;-82
2021/06/09 06:14:14;;;;;;;7.20;4.13;;;19.70;92.80;;;;;;5064527;22;21020;-82
2021/06/09 06:16:19;;;;;;;7.13;4.20;;;19.70;93.00;;;;;;5072321;22;21242;-82
2021/06/09 06:18:31;;;;;;;4.90;4.40;;;19.70;93.70;;;;;;5072779;22;20913;-83
2021/06/09 06:20:34;;;;;;;4.80;4.20;;;19.70;92.60;;;;;;5073012;23;20415;-82
2021/06/09 06:22:37;;;;;;;5.50;3.63;;;19.70;93.00;;;;;;5072441;22;20428;-82
2021/06/09 06:24:41;;;;;;;4.17;3.77;;;19.80;93.20;;;;;;5078070;22;20424;-80
2021/06/09 06:26:46;;;;;;;10.43;5.00;;;19.80;92.70;;;;;;5066941;23;20927;-80
2021/06/09 06:28:50;;;;;;;4.90;4.30;;;19.80;93.00;;;;;;5066734;23;20448;-80
2021/06/09 06:30:53;;;;;;;4.10;3.70;;;19.90;93.20;;;;;;5074669;23;20956;-80
2021/06/09 06:32:57;;;;;;;5.77;4.17;;;20.00;92.40;;;;;;5066907;23;20515;-80
2021/06/09 06:35:02;;;;;;;4.57;3.97;;;20.20;91.50;;;;;;5067080;23;20463;-80
2021/06/09 06:37:05;;;;;;;4.20;3.80;;;20.20;91.60;;;;;;5067142;22;20443;-80
2021/06/09 06:39:08;;;;;;;5.80;3.80;;;20.30;92.20;;;;;;5065475;23;20456;-81
2021/06/09 06:41:11;;;;;;;4.93;3.87;;;20.30;91.90;;;;;;5072689;23;20431;-82
2021/06/09 06:43:14;;;;;;;16.83;5.00;;;20.40;90.10;;;;;;5071862;22;20435;-82
2021/06/09 06:45:17;;;;;;;4.30;3.90;;;20.40;89.30;;;;;;5072933;22;20777;-81
2021/06/09 06:47:20;;;;;;;4.97;3.70;;;20.40;89.50;;;;;;5073019;22;20420;-82
2021/06/09 06:49:25;;;;;;;7.27;3.87;;;20.40;89.30;;;;;;5064403;22;20484;-81
2021/06/09 06:51:29;;;;;;;4.60;3.87;;;20.30;89.40;;;;;;5072263;22;20497;-82
2021/06/09 06:53:32;;;;;;;7.90;3.90;;;20.40;89.60;;;;;;5071956;22;20424;-82
2021/06/09 06:55:35;;;;;;;4.60;3.77;;;20.30;89.50;;;;;;5062864;22;20440;-82
2021/06/09 06:57:38;;;;;;;4.90;3.50;;;20.40;89.20;;;;;;5069487;22;20459;-82
2021/06/09 06:59:41;;;;;;;4.93;4.00;;;20.50;89.10;;;;;;5068865;22;20490;-82
2021/06/09 07:01:44;;;;;;;4.43;4.03;;;20.50;88.80;;;;;;5069422;22;20503;-82
2021/06/09 07:03:47;;;;;;;4.47;3.73;;;20.50;88.30;;;;;;5062105;23;20459;-82
2021/06/09 07:05:50;;;;;;;4.27;3.80;;;20.60;88.60;;;;;;5069184;23;20428;-82
2021/06/09 07:07:56;;;;;;;3.93;3.53;;;20.70;88.40;;;;;;5061836;23;20436;-82
2021/06/09 07:10:01;;;;;;;4.17;3.10;;;20.90;88.40;;;;;;5069723;23;20658;-82
2021/06/09 07:12:10;;;;;;;5.73;3.40;;;21.00;88.30;;;;;;5062518;23;20504;-82
2021/06/09 07:14:13;;;;;;;4.20;3.80;;;21.10;87.30;;;;;;5063054;23;20503;-82
2021/06/09 07:16:16;;;;;;;4.27;3.70;;;21.30;85.80;;;;;;5071249;22;20507;-82
2021/06/09 07:18:21;;;;;;;3.70;3.37;;;21.30;85.60;;;;;;5071486;22;20423;-82
2021/06/09 07:20:26;;;;;;;4.70;3.23;;;21.30;84.90;;;;;;5071535;23;20444;-82
2021/06/09 07:22:31;;;;;;;3.27;2.97;;;21.30;85.10;;;;;;5063853;23;20451;-82
2021/06/09 07:24:36;;;;;;;5.13;3.37;;;21.30;84.70;;;;;;5075996;22;20454;-82
2021/06/09 07:26:42;;;;;;;6.10;3.67;;;21.40;85.20;;;;;;5073801;23;20701;-82
2021/06/09 07:28:46;;;;;;;3.80;3.17;;;21.40;85.50;;;;;;5071171;23;20448;-82
2021/06/09 07:30:50;;;;;;;3.83;3.53;;;21.60;85.40;;;;;;5062947;23;20517;-82
2021/06/09 07:32:53;;;;;;;4.80;3.77;;;21.70;84.90;;;;;;5063764;22;20446;-82
2021/06/09 07:35:02;;;;;;;3.77;3.03;;;21.70;85.60;;;;;;5070925;23;20431;-82
2021/06/09 07:37:12;;;;;;;3.63;3.10;;;21.90;85.00;;;;;;5070667;23;20427;-82
2021/06/09 07:39:22;;;;;;;4.63;3.40;;;22.00;85.00;;;;;;5069947;23;20452;-82
2021/06/09 07:41:30;;;;;;;4.13;3.10;;;22.00;84.60;;;;;;5062655;23;21113;-82
2021/06/09 07:43:38;;;;;;;5.33;2.90;;;22.10;84.60;;;;;;5070641;23;20435;-82
2021/06/09 07:45:42;;;;;;;5.00;3.20;;;22.10;83.50;;;;;;5062903;23;20426;-82
2021/06/09 07:47:47;;;;;;;3.43;3.23;;;22.10;84.30;;;;;;5071283;23;20448;-82
2021/06/09 07:49:53;;;;;;;4.73;3.00;;;22.20;84.50;;;;;;5062708;23;20459;-82
2021/06/09 07:51:56;;;;;;;5.23;3.23;;;22.10;84.00;;;;;;5071353;23;20439;-82
2021/06/09 07:54:01;;;;;;;3.87;3.47;;;22.10;84.20;;;;;;5064007;23;21101;-82
2021/06/09 07:56:04;;;;;;;5.10;3.50;;;22.20;83.70;;;;;;5063188;23;20944;-82
2021/06/09 08:03:02;;;;;;;3.77;3.40;;;22.20;83.50;;;;;;5050457;22;20471;-83
2021/06/09 08:05:07;;;;;;;3.33;2.80;;;22.10;82.30;;;;;;5073537;23;20415;-83
2021/06/09 08:07:10;;;;;;;4.63;3.20;;;22.10;81.20;;;;;;5073437;23;20759;-83
2021/06/09 08:09:15;;;;;;;5.00;3.07;;;22.20;81.80;;;;;;5073576;23;20534;-83
2021/06/09 08:11:19;;;;;;;4.30;3.10;;;22.30;80.50;;;;;;5074862;23;20486;-83
2021/06/09 08:13:26;;;;;;;5.00;3.43;;;22.40;81.40;;;;;;5073504;22;20519;-83
2021/06/09 08:15:31;;;;;;;7.67;2.90;;;22.60;81.10;;;;;;5073308;23;20419;-83
2021/06/09 08:17:35;;;;;;;3.37;2.93;;;22.70;80.00;;;;;;5073566;22;20487;-83
2021/06/09 08:19:38;;;;;;;3.97;3.47;;;22.80;80.40;;;;;;5074354;22;20461;-83
2021/06/09 08:21:40;;;;;;;3.37;3.07;;;22.80;79.80;;;;;;5075092;22;20427;-83
2021/06/09 08:23:48;;;;;;;3.40;2.80;;;22.70;79.10;;;;;;5074702;23;20911;-83
2021/06/09 08:25:50;;;;;;;3.67;3.37;;;22.70;78.80;;;;;;5073931;23;20733;-82
2021/06/09 08:27:54;;;;;;;5.83;3.30;;;22.80;79.20;;;;;;5067120;22;20529;-84
2021/06/09 08:29:58;;;;;;;4.20;3.40;;;22.90;79.30;;;;;;5077209;22;21211;-82
2021/06/09 08:32:00;;;;;;;4.03;3.23;;;23.00;79.60;;;;;;5074817;22;20428;-83
2021/06/09 08:34:07;;;;;;;3.70;3.20;;;23.20;79.00;;;;;;5066218;22;20489;-83
2021/06/09 08:36:13;;;;;;;3.73;3.10;;;23.30;78.60;;;;;;5066811;23;20428;-83
2021/06/09 08:38:15;;;;;;;7.47;4.87;;;23.30;78.20;;;;;;5065595;23;20416;-83
2021/06/09 08:40:17;;;;;;;6.60;3.07;;;23.40;78.80;;;;;;5073962;22;20444;-83
2021/06/09 08:42:21;;;;;;;4.30;3.23;;;23.70;79.00;;;;;;5073099;22;20435;-83
2021/06/09 08:44:24;;;;;;;3.07;2.83;;;23.80;77.80;;;;;;5073707;22;20431;-83
2021/06/09 08:46:29;;;;;;;7.27;4.10;;;23.80;77.90;;;;;;5064878;22;20440;-84
2021/06/09 08:48:35;;;;;;;4.53;3.10;;;24.00;78.10;;;;;;5072335;22;20482;-83
2021/06/09 08:50:38;;;;;;;6.03;3.60;;;24.00;76.50;;;;;;5072527;23;20523;-83
2021/06/09 08:52:46;;;;;;;3.10;2.80;;;23.90;77.70;;;;;;5064962;23;20436;-83
2021/06/09 08:54:50;;;;;;;4.10;3.10;;;24.10;77.30;;;;;;5065164;23;20745;-83
2021/06/09 08:56:53;;;;;;;5.60;3.60;;;24.10;76.70;;;;;;5064592;23;20432;-84
2021/06/09 08:58:56;;;;;;;4.00;3.60;;;24.30;77.30;;;;;;5064103;22;20515;-83
2021/06/09 09:00:59;;;;;;;5.30;3.40;;;24.60;76.40;;;;;;5063997;23;20432;-83
2021/06/09 14:46:14;;;;;;;6.00;5.40;;;30.20;68.20;;;;;;5059747;23;20469;-85
2021/06/09 14:51:05;;;;;;;5.97;5.43;;;30.30;68.00;;;;;;5071682;22;20439;-87
2021/06/09 14:53:10;;;;;;;6.10;5.60;;;29.90;67.40;;;;;;5071674;23;20444;-86
2021/06/09 14:55:23;;;;;;;6.70;6.03;;;29.70;68.60;;;;;;5071978;23;20427;-85
2021/06/09 14:57:28;;;;;;;6.00;5.50;;;29.50;70.10;;;;;;5072056;22;20502;-87
2021/06/09 14:59:31;;;;;;;6.30;5.70;;;29.30;70.00;;;;;;5071249;22;20514;-86
2021/06/09 15:01:38;;;;;;;6.67;6.07;;;29.10;70.40;;;;;;5071285;22;20428;-85
2021/06/09 15:03:41;;;;;;;5.93;5.43;;;28.90;70.50;;;;;;5071411;22;20511;-86
2021/06/09 15:05:46;;;;;;;6.30;5.60;;;28.80;71.30;;;;;;5071178;23;20925;-84
2021/06/09 15:07:49;;;;;;;6.33;5.83;;;28.70;72.30;;;;;;5071307;22;20898;-86
2021/06/09 15:09:59;;;;;;;6.83;6.10;;;28.80;73.30;;;;;;5059359;23;20450;-85
2021/06/09 15:12:11;;;;;;;6.23;5.73;;;29.00;72.50;;;;;;5038982;23;20441;-85
2021/06/09 17:15:33;;;;;;;8.20;7.50;;;26.00;73.10;;;;;;5150972;22;20806;-82
2021/06/09 17:20:55;;;;;;;8.67;7.97;;;25.90;73.70;;;;;;5052918;23;20915;-84
2021/06/09 17:23:00;;;;;;;9.33;7.60;;;25.80;74.40;;;;;;5155971;23;20796;-83
2021/06/09 17:25:06;;;;;;;9.47;8.47;;;25.80;74.60;;;;;;5156242;22;20502;-83
2021/06/09 17:27:10;;;;;;;8.10;7.40;;;25.70;74.50;;;;;;5156792;23;20472;-84
2021/06/09 17:29:44;;;;;;;9.03;8.23;;;25.60;74.90;;;;;;5154746;22;20424;-85
2021/06/09 17:32:03;;;;;;;9.20;8.30;;;25.60;75.10;;;;;;5124088;23;20436;-84
2021/06/09 17:34:06;;;;;;;9.50;8.67;;;25.50;75.40;;;;;;5157165;23;21235;-85
2021/06/09 17:36:10;;;;;;;11.97;10.87;;;25.50;75.70;;;;;;5156556;23;20431;-84
2021/06/09 17:38:13;;;;;;;14.17;12.73;;;25.50;76.00;;;;;;5156338;23;20451;-85
2021/06/09 17:40:16;;;;;;;11.50;10.40;;;25.50;76.50;;;;;;5148129;23;20442;-83
2021/06/09 17:42:18;;;;;;;11.10;9.97;;;25.50;76.70;;;;;;5155645;23;20422;-84
2021/06/09 17:44:21;;;;;;;10.00;9.20;;;25.50;76.60;;;;;;5156231;23;20798;-84
2021/06/09 17:46:24;;;;;;;9.60;8.73;;;25.40;76.70;;;;;;5156385;23;20930;-84
2021/06/09 17:48:28;;;;;;;9.87;8.40;;;25.40;76.80;;;;;;5148007;23;20511;-84
2021/06/09 17:50:31;;;;;;;9.63;8.50;;;25.40;76.80;;;;;;5154504;23;20500;-83
2021/06/09 17:52:33;;;;;;;10.33;7.30;;;25.40;76.80;;;;;;5156410;23;20447;-84
2021/06/09 17:54:36;;;;;;;7.83;7.13;;;25.40;77.40;;;;;;5147166;23;20487;-84
2021/06/09 17:56:41;;;;;;;9.43;7.63;;;25.30;77.80;;;;;;5156274;23;20478;-84
2021/06/09 17:58:43;;;;;;;8.33;7.53;;;25.40;77.40;;;;;;5146390;23;21125;-83
2021/06/09 18:00:51;;;;;;;9.00;8.10;;;25.40;77.10;;;;;;5147778;23;20442;-84
2021/06/09 18:03:04;;;;;;;7.97;7.27;;;25.40;76.90;;;;;;5152713;23;20830;-84
2021/06/09 18:05:11;;;;;;;9.60;7.27;;;25.30;77.40;;;;;;5155496;22;20464;-83
2021/06/09 18:07:16;;;;;;;8.40;7.20;;;25.30;77.80;;;;;;5148019;23;20443;-83
2021/06/09 18:09:21;;;;;;;11.27;7.10;;;25.30;78.50;;;;;;5150624;23;20425;-82
2021/06/09 18:11:30;;;;;;;8.00;7.20;;;25.20;78.30;;;;;;5143359;23;20964;-84
2021/06/09 18:13:32;;;;;;;9.57;7.57;;;25.20;78.50;;;;;;5155150;23;20862;-84
2021/06/09 18:15:36;;;;;;;8.70;7.27;;;25.20;78.60;;;;;;5142715;23;20539;-85
2021/06/09 18:17:39;;;;;;;14.70;8.90;;;25.10;79.00;;;;;;5150822;23;20421;-85
2021/06/09 18:19:42;;;;;;;12.50;11.20;;;25.10;78.20;;;;;;5151163;23;20507;-85
2021/06/09 18:21:46;;;;;;;52.90;44.13;;;25.00;77.70;;;;;;5155317;23;20424;-83
2021/06/09 18:23:50;;;;;;;20.20;17.40;;;25.00;78.10;;;;;;5141504;23;20503;-83
2021/06/09 18:25:52;;;;;;;10.30;9.23;;;25.10;77.60;;;;;;5141685;23;20428;-83
2021/06/09 18:27:55;;;;;;;9.87;9.00;;;25.00;77.90;;;;;;5141201;23;20448;-83
2021/06/09 18:29:58;;;;;;;12.37;11.17;;;25.00;78.00;;;;;;5149929;23;20420;-82
2021/06/09 18:32:01;;;;;;;9.67;8.67;;;24.90;78.40;;;;;;5141994;23;20437;-83
2021/06/09 18:34:04;;;;;;;11.43;10.33;;;24.80;78.30;;;;;;5141861;23;20453;-83
2021/06/09 18:36:06;;;;;;;14.87;13.40;;;24.80;78.40;;;;;;5150107;23;20519;-83
2021/06/09 18:38:10;;;;;;;12.17;11.07;;;24.70;78.50;;;;;;5149421;23;20425;-83
2021/06/09 18:40:13;;;;;;;19.23;15.03;;;24.70;78.90;;;;;;5149695;23;20430;-83
2021/06/09 18:42:17;;;;;;;13.80;12.50;;;24.70;79.10;;;;;;5141442;23;20516;-83
2021/06/09 18:44:20;;;;;;;10.27;9.17;;;24.70;79.60;;;;;;5141140;23;20453;-83
2021/06/09 18:46:23;;;;;;;11.20;10.20;;;24.60;79.50;;;;;;5141799;23;20504;-83
2021/06/09 18:48:26;;;;;;;9.30;8.40;;;24.60;80.30;;;;;;5149228;23;20546;-82
2021/06/09 18:50:29;;;;;;;8.60;7.80;;;24.60;80.60;;;;;;5140685;23;20447;-84
2021/06/09 18:52:32;;;;;;;8.67;7.97;;;24.60;80.60;;;;;;5149162;23;20822;-83